Shandaken, NY

2:34 AM EDT on April 27, 2015 (GMT -0400)
Orange County | | Change Station
CLOSE
Current Station
Airport
Location: Montgomery,
Elevation: 364 ft
Nearby Weather Stations

Elev 364 ft 41.51 °N, 74.26 °W | Updated 40 minutes ago

Overcast
Overcast
48 °F
Feels Like 48 °F
N
8
Wind Variable Wind from WNW

Today
High -- | Low -- °F
--% Chance of Precip.
Yesterday
High -- | Low -- °F
Precip. -- in
5:59 AM 7:51 PM
Waxing Gibbous, 62% visible
Pressure 29.68 in
Visibility 10.0 miles
Clouds Overcast 7000 ft
Dew Point 31 °F
Humidity 52%
Rainfall 0.00 in
Snow Depth Not available.
UV 0 out of 12
Pollen 10.10 out of 12
Air Quality Not available.
Flu Activity Widespread
METAR KMGJ 270554Z AUTO 30007KT 10SM OVC070 09/M01 A2967 RMK AO2 SLP048 T00891006 10117 20089 56002 TSNO

More Conditions Fewer Conditions

Pressure 29.68 in
Visibility 10.0 miles
Clouds Overcast 7000 ft
Dew Point 31 °F
Humidity 52%
Rainfall 0.00 in
Snow Depth Not available.
UV 0 out of 12
Pollen 10.10 out of 12
Air Quality Not available.
Flu Activity Widespread
METAR KMGJ 270554Z AUTO 30007KT 10SM OVC070 09/M01 A2967 RMK AO2 SLP048 T00891006 10117 20089 56002 TSNO

More Conditions Fewer Conditions

10-Day Weather Forecast

Almanac

Astronomy

Apr. 27, 2015 Rise Set
Actual Time
Civil Twilight
Nautical Twilight
Astronomical Twilight
Moon
Length of Visible Light
Length of Day
Tomorrow will be .
, % of the Moon is Illuminated

Today's Extremes

State Highs State Lows

Community

WunderPhotos

Upload Photos

1,817,268 photos uploaded!

WunderBlogs® & News

Nearby

Air Quality

  Air Quality AQ Index Pollutant
Not available.

Snow Depth

Station Depth Elevation

Earthquake Activity

City Distance Mag. Time & Date
Minimum magnitude displayed is 2.5.

Coastal Water Temperatures

Place Temperature

Stations

Nearby Weather Stations

Station Location Temp. Windchill Dew Point Humidity Wind Precip. Elev Updated Type